sensor_id;sensor_type;location;lat;lon;timestamp;P1;durP1;ratioP1;P2;durP2;ratioP2
52674;SDS011;38569;52.722;6.440;2024-01-10T00:01:33;21.88;;;13.45;;
52674;SDS011;38569;52.722;6.440;2024-01-10T00:03:58;23.02;;;14.30;;
52674;SDS011;38569;52.722;6.440;2024-01-10T00:06:24;16.23;;;10.55;;
52674;SDS011;38569;52.722;6.440;2024-01-10T00:08:50;20.23;;;13.52;;
52674;SDS011;38569;52.722;6.440;2024-01-10T00:11:16;22.90;;;13.40;;
52674;SDS011;38569;52.722;6.440;2024-01-10T00:13:41;24.13;;;12.82;;
52674;SDS011;38569;52.722;6.440;2024-01-10T00:16:07;17.75;;;11.55;;
52674;SDS011;38569;52.722;6.440;2024-01-10T00:18:33;20.58;;;12.43;;
52674;SDS011;38569;52.722;6.440;2024-01-10T00:20:59;14.55;;;10.07;;
52674;SDS011;38569;52.722;6.440;2024-01-10T00:23:25;20.88;;;11.38;;
52674;SDS011;38569;52.722;6.440;2024-01-10T00:25:51;20.08;;;11.85;;
52674;SDS011;38569;52.722;6.440;2024-01-10T00:28:16;23.83;;;13.85;;
52674;SDS011;38569;52.722;6.440;2024-01-10T00:30:43;16.27;;;10.88;;
52674;SDS011;38569;52.722;6.440;2024-01-10T00:33:10;24.42;;;15.23;;
52674;SDS011;38569;52.722;6.440;2024-01-10T00:35:36;20.30;;;11.75;;
52674;SDS011;38569;52.722;6.440;2024-01-10T00:38:02;19.27;;;10.02;;
52674;SDS011;38569;52.722;6.440;2024-01-10T00:40:28;22.95;;;15.27;;
52674;SDS011;38569;52.722;6.440;2024-01-10T00:42:54;21.67;;;13.02;;
52674;SDS011;38569;52.722;6.440;2024-01-10T00:45:20;20.90;;;12.73;;
52674;SDS011;38569;52.722;6.440;2024-01-10T00:47:45;28.08;;;12.95;;
52674;SDS011;38569;52.722;6.440;2024-01-10T00:50:13;22.48;;;14.57;;
52674;SDS011;38569;52.722;6.440;2024-01-10T00:52:39;18.98;;;11.25;;
52674;SDS011;38569;52.722;6.440;2024-01-10T00:55:04;19.90;;;11.57;;
52674;SDS011;38569;52.722;6.440;2024-01-10T00:57:30;15.65;;;7.88;;
52674;SDS011;38569;52.722;6.440;2024-01-10T00:59:56;23.63;;;14.93;;
52674;SDS011;38569;52.722;6.440;2024-01-10T01:02:22;21.00;;;10.90;;
52674;SDS011;38569;52.722;6.440;2024-01-10T01:04:47;21.95;;;13.35;;
52674;SDS011;38569;52.722;6.440;2024-01-10T01:07:13;14.73;;;8.48;;
52674;SDS011;38569;52.722;6.440;2024-01-10T01:09:39;19.90;;;10.82;;
52674;SDS011;38569;52.722;6.440;2024-01-10T01:12:05;21.48;;;11.07;;
52674;SDS011;38569;52.722;6.440;2024-01-10T01:14:30;21.85;;;11.93;;
52674;SDS011;38569;52.722;6.440;2024-01-10T01:16:56;25.33;;;14.07;;
52674;SDS011;38569;52.722;6.440;2024-01-10T01:19:22;21.83;;;13.35;;
52674;SDS011;38569;52.722;6.440;2024-01-10T01:21:47;16.95;;;9.90;;
52674;SDS011;38569;52.722;6.440;2024-01-10T01:24:13;22.55;;;12.95;;
52674;SDS011;38569;52.722;6.440;2024-01-10T01:26:39;20.63;;;13.93;;
52674;SDS011;38569;52.722;6.440;2024-01-10T01:29:04;24.67;;;13.40;;
52674;SDS011;38569;52.722;6.440;2024-01-10T01:31:30;18.25;;;12.13;;
52674;SDS011;38569;52.722;6.440;2024-01-10T01:33:56;21.70;;;13.52;;
52674;SDS011;38569;52.722;6.440;2024-01-10T01:36:22;21.70;;;12.68;;
52674;SDS011;38569;52.722;6.440;2024-01-10T01:38:48;22.95;;;14.32;;
52674;SDS011;38569;52.722;6.440;2024-01-10T01:41:14;24.67;;;13.63;;
52674;SDS011;38569;52.722;6.440;2024-01-10T01:43:40;14.35;;;9.68;;
52674;SDS011;38569;52.722;6.440;2024-01-10T01:46:06;23.55;;;12.57;;
52674;SDS011;38569;52.722;6.440;2024-01-10T01:48:33;17.50;;;10.00;;
52674;SDS011;38569;52.722;6.440;2024-01-10T01:51:01;30.73;;;15.15;;
52674;SDS011;38569;52.722;6.440;2024-01-10T01:53:29;20.42;;;12.93;;
52674;SDS011;38569;52.722;6.440;2024-01-10T01:55:55;23.58;;;14.07;;
52674;SDS011;38569;52.722;6.440;2024-01-10T01:58:22;17.10;;;10.10;;
52674;SDS011;38569;52.722;6.440;2024-01-10T02:00:48;23.33;;;13.63;;
52674;SDS011;38569;52.722;6.440;2024-01-10T02:03:15;22.02;;;10.43;;
52674;SDS011;38569;52.722;6.440;2024-01-10T02:05:41;18.77;;;10.32;;
52674;SDS011;38569;52.722;6.440;2024-01-10T02:08:08;16.95;;;10.13;;
52674;SDS011;38569;52.722;6.440;2024-01-10T02:10:34;16.23;;;9.25;;
52674;SDS011;38569;52.722;6.440;2024-01-10T02:13:00;22.38;;;12.63;;
52674;SDS011;38569;52.722;6.440;2024-01-10T02:15:26;19.52;;;10.43;;
52674;SDS011;38569;52.722;6.440;2024-01-10T02:17:52;13.63;;;8.30;;
52674;SDS011;38569;52.722;6.440;2024-01-10T02:20:18;18.95;;;11.85;;
52674;SDS011;38569;52.722;6.440;2024-01-10T02:22:45;19.00;;;12.35;;
52674;SDS011;38569;52.722;6.440;2024-01-10T02:25:12;25.33;;;12.60;;
52674;SDS011;38569;52.722;6.440;2024-01-10T02:27:39;17.45;;;9.60;;
52674;SDS011;38569;52.722;6.440;2024-01-10T02:30:06;15.60;;;10.95;;
52674;SDS011;38569;52.722;6.440;2024-01-10T02:32:32;14.05;;;9.50;;
52674;SDS011;38569;52.722;6.440;2024-01-10T02:34:58;22.95;;;12.52;;
52674;SDS011;38569;52.722;6.440;2024-01-10T02:37:24;17.33;;;11.55;;
52674;SDS011;38569;52.722;6.440;2024-01-10T02:39:50;17.08;;;10.38;;
52674;SDS011;38569;52.722;6.440;2024-01-10T02:42:16;14.48;;;9.40;;
52674;SDS011;38569;52.722;6.440;2024-01-10T02:44:42;14.70;;;9.85;;
52674;SDS011;38569;52.722;6.440;2024-01-10T02:47:08;17.48;;;9.40;;
52674;SDS011;38569;52.722;6.440;2024-01-10T02:49:34;10.90;;;7.25;;
52674;SDS011;38569;52.722;6.440;2024-01-10T02:52:00;17.15;;;10.23;;
52674;SDS011;38569;52.722;6.440;2024-01-10T02:54:26;17.48;;;11.10;;
52674;SDS011;38569;52.722;6.440;2024-01-10T02:56:51;15.82;;;10.15;;
52674;SDS011;38569;52.722;6.440;2024-01-10T02:59:17;13.70;;;7.40;;
52674;SDS011;38569;52.722;6.440;2024-01-10T03:01:43;21.65;;;12.77;;
52674;SDS011;38569;52.722;6.440;2024-01-10T03:04:09;16.73;;;9.63;;
52674;SDS011;38569;52.722;6.440;2024-01-10T03:06:35;21.40;;;10.88;;
52674;SDS011;38569;52.722;6.440;2024-01-10T03:09:01;15.05;;;9.82;;
52674;SDS011;38569;52.722;6.440;2024-01-10T03:11:27;15.65;;;10.18;;
52674;SDS011;38569;52.722;6.440;2024-01-10T03:14:03;17.92;;;11.23;;
52674;SDS011;38569;52.722;6.440;2024-01-10T03:16:34;15.50;;;9.95;;
52674;SDS011;38569;52.722;6.440;2024-01-10T03:19:00;19.42;;;11.93;;
52674;SDS011;38569;52.722;6.440;2024-01-10T03:21:25;16.75;;;9.25;;
52674;SDS011;38569;52.722;6.440;2024-01-10T03:23:57;14.73;;;9.43;;
52674;SDS011;38569;52.722;6.440;2024-01-10T03:26:25;12.02;;;8.68;;
52674;SDS011;38569;52.722;6.440;2024-01-10T03:28:51;13.18;;;8.45;;
52674;SDS011;38569;52.722;6.440;2024-01-10T03:31:17;17.17;;;10.70;;
52674;SDS011;38569;52.722;6.440;2024-01-10T03:33:43;18.88;;;10.02;;
52674;SDS011;38569;52.722;6.440;2024-01-10T03:36:11;16.52;;;10.18;;
52674;SDS011;38569;52.722;6.440;2024-01-10T03:38:41;17.35;;;9.57;;
52674;SDS011;38569;52.722;6.440;2024-01-10T03:41:07;23.05;;;13.10;;
52674;SDS011;38569;52.722;6.440;2024-01-10T03:43:37;17.08;;;11.35;;
52674;SDS011;38569;52.722;6.440;2024-01-10T03:46:03;17.10;;;9.68;;
52674;SDS011;38569;52.722;6.440;2024-01-10T03:48:29;15.88;;;10.20;;
52674;SDS011;38569;52.722;6.440;2024-01-10T03:50:54;18.75;;;12.20;;
52674;SDS011;38569;52.722;6.440;2024-01-10T03:53:20;11.77;;;6.88;;
52674;SDS011;38569;52.722;6.440;2024-01-10T03:55:46;16.83;;;9.13;;
52674;SDS011;38569;52.722;6.440;2024-01-10T03:58:11;19.88;;;10.02;;
52674;SDS011;38569;52.722;6.440;2024-01-10T04:00:37;19.85;;;11.98;;
52674;SDS011;38569;52.722;6.440;2024-01-10T04:03:03;18.13;;;10.63;;
52674;SDS011;38569;52.722;6.440;2024-01-10T04:05:29;17.92;;;10.77;;
52674;SDS011;38569;52.722;6.440;2024-01-10T04:07:54;12.70;;;8.95;;
52674;SDS011;38569;52.722;6.440;2024-01-10T04:10:22;18.20;;;10.48;;
52674;SDS011;38569;52.722;6.440;2024-01-10T04:12:48;9.82;;;6.43;;
52674;SDS011;38569;52.722;6.440;2024-01-10T04:15:14;21.50;;;11.93;;
52674;SDS011;38569;52.722;6.440;2024-01-10T04:17:41;14.38;;;9.38;;
52674;SDS011;38569;52.722;6.440;2024-01-10T04:20:06;14.18;;;9.77;;
52674;SDS011;38569;52.722;6.440;2024-01-10T04:22:32;16.15;;;9.43;;
52674;SDS011;38569;52.722;6.440;2024-01-10T04:24:59;17.73;;;12.45;;
52674;SDS011;38569;52.722;6.440;2024-01-10T04:27:26;15.60;;;8.85;;
52674;SDS011;38569;52.722;6.440;2024-01-10T04:29:52;17.63;;;10.93;;
52674;SDS011;38569;52.722;6.440;2024-01-10T04:32:18;14.85;;;7.30;;
52674;SDS011;38569;52.722;6.440;2024-01-10T04:34:44;14.00;;;9.35;;
52674;SDS011;38569;52.722;6.440;2024-01-10T04:37:09;13.10;;;9.02;;
52674;SDS011;38569;52.722;6.440;2024-01-10T04:39:35;14.85;;;9.80;;
52674;SDS011;38569;52.722;6.440;2024-01-10T04:42:03;14.55;;;8.95;;
52674;SDS011;38569;52.722;6.440;2024-01-10T04:44:29;19.42;;;10.30;;
52674;SDS011;38569;52.722;6.440;2024-01-10T04:46:54;13.82;;;8.65;;
52674;SDS011;38569;52.722;6.440;2024-01-10T04:49:20;18.50;;;10.15;;
52674;SDS011;38569;52.722;6.440;2024-01-10T04:51:46;13.52;;;9.73;;
52674;SDS011;38569;52.722;6.440;2024-01-10T04:54:12;17.73;;;10.02;;
52674;SDS011;38569;52.722;6.440;2024-01-10T04:56:38;16.45;;;10.88;;
52674;SDS011;38569;52.722;6.440;2024-01-10T04:59:04;18.00;;;10.88;;
52674;SDS011;38569;52.722;6.440;2024-01-10T05:01:30;19.30;;;10.40;;
52674;SDS011;38569;52.722;6.440;2024-01-10T05:03:56;11.13;;;6.47;;
52674;SDS011;38569;52.722;6.440;2024-01-10T05:06:22;19.92;;;10.68;;
52674;SDS011;38569;52.722;6.440;2024-01-10T05:08:48;18.05;;;10.02;;
52674;SDS011;38569;52.722;6.440;2024-01-10T05:11:14;16.67;;;10.68;;
52674;SDS011;38569;52.722;6.440;2024-01-10T05:13:41;11.02;;;5.93;;
52674;SDS011;38569;52.722;6.440;2024-01-10T05:16:09;16.55;;;11.00;;
52674;SDS011;38569;52.722;6.440;2024-01-10T05:18:35;15.00;;;9.27;;
52674;SDS011;38569;52.722;6.440;2024-01-10T05:21:00;19.05;;;11.88;;
52674;SDS011;38569;52.722;6.440;2024-01-10T05:23:27;18.05;;;11.38;;
52674;SDS011;38569;52.722;6.440;2024-01-10T05:25:53;16.35;;;10.23;;
52674;SDS011;38569;52.722;6.440;2024-01-10T05:28:19;18.30;;;10.90;;
52674;SDS011;38569;52.722;6.440;2024-01-10T05:30:45;18.65;;;10.45;;
52674;SDS011;38569;52.722;6.440;2024-01-10T05:33:10;14.80;;;8.73;;
52674;SDS011;38569;52.722;6.440;2024-01-10T05:35:37;16.25;;;10.68;;
52674;SDS011;38569;52.722;6.440;2024-01-10T05:38:03;16.67;;;9.98;;
52674;SDS011;38569;52.722;6.440;2024-01-10T05:40:29;20.30;;;10.95;;
52674;SDS011;38569;52.722;6.440;2024-01-10T05:42:55;15.63;;;9.43;;
52674;SDS011;38569;52.722;6.440;2024-01-10T05:45:21;17.45;;;9.98;;
52674;SDS011;38569;52.722;6.440;2024-01-10T05:47:47;17.67;;;11.35;;
52674;SDS011;38569;52.722;6.440;2024-01-10T05:50:15;17.05;;;9.10;;
52674;SDS011;38569;52.722;6.440;2024-01-10T05:52:42;18.40;;;11.50;;
52674;SDS011;38569;52.722;6.440;2024-01-10T05:55:09;17.20;;;10.20;;
52674;SDS011;38569;52.722;6.440;2024-01-10T05:57:35;18.73;;;12.82;;
52674;SDS011;38569;52.722;6.440;2024-01-10T06:00:02;14.35;;;7.50;;
52674;SDS011;38569;52.722;6.440;2024-01-10T06:02:28;14.13;;;9.07;;
52674;SDS011;38569;52.722;6.440;2024-01-10T06:04:54;18.10;;;11.27;;
52674;SDS011;38569;52.722;6.440;2024-01-10T06:07:19;19.05;;;11.55;;
52674;SDS011;38569;52.722;6.440;2024-01-10T06:09:48;19.58;;;12.80;;
52674;SDS011;38569;52.722;6.440;2024-01-10T06:12:14;21.05;;;13.85;;
52674;SDS011;38569;52.722;6.440;2024-01-10T06:14:40;20.13;;;13.15;;
52674;SDS011;38569;52.722;6.440;2024-01-10T06:17:06;19.20;;;11.77;;
52674;SDS011;38569;52.722;6.440;2024-01-10T06:19:31;13.77;;;8.85;;
52674;SDS011;38569;52.722;6.440;2024-01-10T06:21:58;25.08;;;13.13;;
52674;SDS011;38569;52.722;6.440;2024-01-10T06:24:24;23.67;;;13.85;;
52674;SDS011;38569;52.722;6.440;2024-01-10T06:26:50;14.93;;;10.00;;
52674;SDS011;38569;52.722;6.440;2024-01-10T06:29:16;28.10;;;11.65;;
52674;SDS011;38569;52.722;6.440;2024-01-10T06:31:43;28.75;;;17.10;;
52674;SDS011;38569;52.722;6.440;2024-01-10T06:34:08;22.10;;;14.25;;
52674;SDS011;38569;52.722;6.440;2024-01-10T06:36:34;23.83;;;13.13;;
52674;SDS011;38569;52.722;6.440;2024-01-10T06:39:00;21.88;;;13.18;;
52674;SDS011;38569;52.722;6.440;2024-01-10T06:41:26;24.35;;;13.00;;
52674;SDS011;38569;52.722;6.440;2024-01-10T06:43:52;21.42;;;10.57;;
52674;SDS011;38569;52.722;6.440;2024-01-10T06:46:19;16.80;;;11.77;;
52674;SDS011;38569;52.722;6.440;2024-01-10T06:48:45;20.58;;;12.68;;
52674;SDS011;38569;52.722;6.440;2024-01-10T06:51:14;16.58;;;9.80;;
52674;SDS011;38569;52.722;6.440;2024-01-10T06:53:41;24.70;;;13.40;;
52674;SDS011;38569;52.722;6.440;2024-01-10T06:56:07;21.73;;;14.27;;
52674;SDS011;38569;52.722;6.440;2024-01-10T06:58:34;19.25;;;11.65;;
52674;SDS011;38569;52.722;6.440;2024-01-10T07:01:00;24.60;;;14.85;;
52674;SDS011;38569;52.722;6.440;2024-01-10T07:03:26;22.75;;;12.50;;
52674;SDS011;38569;52.722;6.440;2024-01-10T07:05:52;25.80;;;14.05;;
52674;SDS011;38569;52.722;6.440;2024-01-10T07:08:18;21.58;;;13.13;;
52674;SDS011;38569;52.722;6.440;2024-01-10T07:10:43;20.90;;;13.05;;
52674;SDS011;38569;52.722;6.440;2024-01-10T07:13:09;26.25;;;15.13;;
52674;SDS011;38569;52.722;6.440;2024-01-10T07:15:36;22.70;;;13.18;;
52674;SDS011;38569;52.722;6.440;2024-01-10T07:18:03;20.25;;;12.65;;
52674;SDS011;38569;52.722;6.440;2024-01-10T07:20:29;22.10;;;13.23;;
52674;SDS011;38569;52.722;6.440;2024-01-10T07:22:55;19.10;;;11.40;;
52674;SDS011;38569;52.722;6.440;2024-01-10T07:25:21;16.58;;;10.85;;
52674;SDS011;38569;52.722;6.440;2024-01-10T07:27:50;20.70;;;14.02;;
52674;SDS011;38569;52.722;6.440;2024-01-10T07:30:16;21.85;;;12.20;;
52674;SDS011;38569;52.722;6.440;2024-01-10T07:32:42;26.70;;;14.57;;
52674;SDS011;38569;52.722;6.440;2024-01-10T07:35:09;21.02;;;12.80;;
52674;SDS011;38569;52.722;6.440;2024-01-10T07:37:44;19.35;;;12.10;;
52674;SDS011;38569;52.722;6.440;2024-01-10T07:40:10;18.98;;;11.18;;
52674;SDS011;38569;52.722;6.440;2024-01-10T07:42:36;18.95;;;11.07;;
52674;SDS011;38569;52.722;6.440;2024-01-10T07:45:03;10.07;;;7.70;;
52674;SDS011;38569;52.722;6.440;2024-01-10T07:47:33;25.65;;;11.73;;
52674;SDS011;38569;52.722;6.440;2024-01-10T07:50:03;17.88;;;11.20;;
52674;SDS011;38569;52.722;6.440;2024-01-10T07:52:30;21.20;;;13.35;;
52674;SDS011;38569;52.722;6.440;2024-01-10T07:54:55;25.15;;;12.20;;
52674;SDS011;38569;52.722;6.440;2024-01-10T07:57:22;21.70;;;13.00;;
52674;SDS011;38569;52.722;6.440;2024-01-10T07:59:48;22.17;;;14.15;;
52674;SDS011;38569;52.722;6.440;2024-01-10T08:02:13;23.70;;;14.10;;
52674;SDS011;38569;52.722;6.440;2024-01-10T08:04:39;20.70;;;12.93;;
52674;SDS011;38569;52.722;6.440;2024-01-10T08:07:05;20.77;;;12.82;;
52674;SDS011;38569;52.722;6.440;2024-01-10T08:09:30;21.17;;;14.20;;
52674;SDS011;38569;52.722;6.440;2024-01-10T08:11:56;13.15;;;8.05;;
52674;SDS011;38569;52.722;6.440;2024-01-10T08:14:22;15.57;;;10.48;;
52674;SDS011;38569;52.722;6.440;2024-01-10T08:16:48;22.55;;;14.18;;
52674;SDS011;38569;52.722;6.440;2024-01-10T08:19:13;20.38;;;13.32;;
52674;SDS011;38569;52.722;6.440;2024-01-10T08:21:39;20.60;;;12.00;;
52674;SDS011;38569;52.722;6.440;2024-01-10T08:24:05;21.45;;;14.93;;
52674;SDS011;38569;52.722;6.440;2024-01-10T08:26:31;21.20;;;12.45;;
52674;SDS011;38569;52.722;6.440;2024-01-10T08:28:57;25.38;;;14.60;;
52674;SDS011;38569;52.722;6.440;2024-01-10T08:31:22;15.45;;;10.85;;
52674;SDS011;38569;52.722;6.440;2024-01-10T08:33:49;23.25;;;13.38;;
52674;SDS011;38569;52.722;6.440;2024-01-10T08:36:14;20.73;;;13.40;;
52674;SDS011;38569;52.722;6.440;2024-01-10T08:38:41;20.42;;;12.70;;
52674;SDS011;38569;52.722;6.440;2024-01-10T08:41:07;19.98;;;12.98;;
52674;SDS011;38569;52.722;6.440;2024-01-10T08:43:34;20.65;;;12.60;;
52674;SDS011;38569;52.722;6.440;2024-01-10T08:45:59;19.60;;;12.52;;
52674;SDS011;38569;52.722;6.440;2024-01-10T08:48:25;20.83;;;11.93;;
52674;SDS011;38569;52.722;6.440;2024-01-10T08:50:51;18.80;;;12.80;;
52674;SDS011;38569;52.722;6.440;2024-01-10T08:53:19;19.83;;;12.68;;
52674;SDS011;38569;52.722;6.440;2024-01-10T08:55:45;19.52;;;11.50;;
52674;SDS011;38569;52.722;6.440;2024-01-10T08:58:12;23.88;;;12.20;;
52674;SDS011;38569;52.722;6.440;2024-01-10T09:00:38;20.75;;;13.27;;
52674;SDS011;38569;52.722;6.440;2024-01-10T09:03:03;18.50;;;10.20;;
52674;SDS011;38569;52.722;6.440;2024-01-10T09:05:29;19.00;;;12.38;;
52674;SDS011;38569;52.722;6.440;2024-01-10T09:07:55;13.85;;;8.77;;
52674;SDS011;38569;52.722;6.440;2024-01-10T09:10:21;18.73;;;12.50;;
52674;SDS011;38569;52.722;6.440;2024-01-10T09:12:47;17.83;;;11.05;;
52674;SDS011;38569;52.722;6.440;2024-01-10T09:15:13;17.83;;;10.88;;
52674;SDS011;38569;52.722;6.440;2024-01-10T09:17:43;16.17;;;10.15;;
52674;SDS011;38569;52.722;6.440;2024-01-10T09:20:09;18.08;;;10.90;;
52674;SDS011;38569;52.722;6.440;2024-01-10T09:22:36;15.75;;;10.48;;
52674;SDS011;38569;52.722;6.440;2024-01-10T09:25:03;20.30;;;11.75;;
52674;SDS011;38569;52.722;6.440;2024-01-10T09:27:33;14.13;;;8.93;;
52674;SDS011;38569;52.722;6.440;2024-01-10T09:30:03;16.85;;;8.82;;
52674;SDS011;38569;52.722;6.440;2024-01-10T09:32:33;22.17;;;11.93;;
52674;SDS011;38569;52.722;6.440;2024-01-10T09:34:59;17.30;;;9.35;;
52674;SDS011;38569;52.722;6.440;2024-01-10T09:37:25;13.38;;;7.53;;
52674;SDS011;38569;52.722;6.440;2024-01-10T09:39:51;12.63;;;6.50;;
52674;SDS011;38569;52.722;6.440;2024-01-10T09:42:17;14.85;;;9.80;;
52674;SDS011;38569;52.722;6.440;2024-01-10T09:44:44;17.27;;;9.85;;
52674;SDS011;38569;52.722;6.440;2024-01-10T09:47:11;11.07;;;7.80;;
52674;SDS011;38569;52.722;6.440;2024-01-10T09:49:40;11.88;;;6.90;;
52674;SDS011;38569;52.722;6.440;2024-01-10T09:52:06;14.27;;;8.75;;
52674;SDS011;38569;52.722;6.440;2024-01-10T09:54:35;16.85;;;11.32;;
52674;SDS011;38569;52.722;6.440;2024-01-10T09:57:05;11.10;;;6.25;;
52674;SDS011;38569;52.722;6.440;2024-01-10T09:59:31;8.52;;;5.35;;
52674;SDS011;38569;52.722;6.440;2024-01-10T10:01:57;13.65;;;7.75;;
52674;SDS011;38569;52.722;6.440;2024-01-10T10:04:26;11.73;;;8.85;;
52674;SDS011;38569;52.722;6.440;2024-01-10T10:06:58;9.88;;;6.75;;
52674;SDS011;38569;52.722;6.440;2024-01-10T10:09:24;12.82;;;8.00;;
52674;SDS011;38569;52.722;6.440;2024-01-10T10:11:54;13.63;;;9.05;;
52674;SDS011;38569;52.722;6.440;2024-01-10T10:14:20;13.60;;;9.25;;
52674;SDS011;38569;52.722;6.440;2024-01-10T10:16:47;13.63;;;10.13;;
52674;SDS011;38569;52.722;6.440;2024-01-10T10:19:13;15.73;;;10.32;;
52674;SDS011;38569;52.722;6.440;2024-01-10T10:21:48;14.98;;;9.52;;
52674;SDS011;38569;52.722;6.440;2024-01-10T10:24:14;14.77;;;9.52;;
52674;SDS011;38569;52.722;6.440;2024-01-10T10:26:40;10.20;;;7.78;;
52674;SDS011;38569;52.722;6.440;2024-01-10T10:29:06;19.15;;;10.57;;
52674;SDS011;38569;52.722;6.440;2024-01-10T10:31:32;15.02;;;9.85;;
52674;SDS011;38569;52.722;6.440;2024-01-10T10:33:59;15.02;;;9.90;;
52674;SDS011;38569;52.722;6.440;2024-01-10T10:36:27;11.00;;;7.75;;
52674;SDS011;38569;52.722;6.440;2024-01-10T10:38:54;11.98;;;8.02;;
52674;SDS011;38569;52.722;6.440;2024-01-10T10:41:20;14.25;;;9.50;;
52674;SDS011;38569;52.722;6.440;2024-01-10T10:43:46;17.42;;;8.68;;
52674;SDS011;38569;52.722;6.440;2024-01-10T10:46:15;10.77;;;7.95;;
52674;SDS011;38569;52.722;6.440;2024-01-10T10:48:41;15.85;;;9.77;;
52674;SDS011;38569;52.722;6.440;2024-01-10T10:51:08;17.73;;;11.32;;
52674;SDS011;38569;52.722;6.440;2024-01-10T10:53:36;16.80;;;10.38;;
52674;SDS011;38569;52.722;6.440;2024-01-10T10:56:03;13.30;;;9.48;;
52674;SDS011;38569;52.722;6.440;2024-01-10T10:58:41;12.32;;;8.50;;
52674;SDS011;38569;52.722;6.440;2024-01-10T11:01:12;15.85;;;10.20;;
52674;SDS011;38569;52.722;6.440;2024-01-10T11:03:39;13.35;;;9.07;;
52674;SDS011;38569;52.722;6.440;2024-01-10T11:06:07;16.27;;;10.95;;
52674;SDS011;38569;52.722;6.440;2024-01-10T11:08:36;14.30;;;8.50;;
52674;SDS011;38569;52.722;6.440;2024-01-10T11:11:45;16.42;;;10.02;;
52674;SDS011;38569;52.722;6.440;2024-01-10T11:14:47;13.50;;;9.82;;
52674;SDS011;38569;52.722;6.440;2024-01-10T11:20:44;15.93;;;9.68;;
52674;SDS011;38569;52.722;6.440;2024-01-10T11:25:53;13.13;;;8.38;;
52674;SDS011;38569;52.722;6.440;2024-01-10T11:28:18;14.50;;;8.35;;
52674;SDS011;38569;52.722;6.440;2024-01-10T11:30:49;14.75;;;9.88;;
52674;SDS011;38569;52.722;6.440;2024-01-10T11:36:06;15.43;;;9.27;;
52674;SDS011;38569;52.722;6.440;2024-01-10T11:39:00;11.90;;;7.40;;
52674;SDS011;38569;52.722;6.440;2024-01-10T11:46:55;15.40;;;8.40;;
52674;SDS011;38569;52.722;6.440;2024-01-10T11:49:22;11.35;;;6.68;;
52674;SDS011;38569;52.722;6.440;2024-01-10T11:51:58;12.07;;;7.00;;
52674;SDS011;38569;52.722;6.440;2024-01-10T11:54:38;12.10;;;7.70;;
52674;SDS011;38569;52.722;6.440;2024-01-10T11:57:12;14.25;;;8.70;;
52674;SDS011;38569;52.722;6.440;2024-01-10T11:59:41;14.52;;;8.95;;
52674;SDS011;38569;52.722;6.440;2024-01-10T12:02:10;10.60;;;6.40;;
52674;SDS011;38569;52.722;6.440;2024-01-10T12:04:37;12.18;;;5.80;;
52674;SDS011;38569;52.722;6.440;2024-01-10T12:07:03;13.48;;;8.18;;
52674;SDS011;38569;52.722;6.440;2024-01-10T12:09:31;11.75;;;7.20;;
52674;SDS011;38569;52.722;6.440;2024-01-10T12:11:57;13.35;;;7.38;;
52674;SDS011;38569;52.722;6.440;2024-01-10T12:14:23;13.40;;;7.32;;
52674;SDS011;38569;52.722;6.440;2024-01-10T12:16:53;12.52;;;6.88;;
52674;SDS011;38569;52.722;6.440;2024-01-10T12:19:19;12.82;;;6.43;;
52674;SDS011;38569;52.722;6.440;2024-01-10T12:21:44;12.68;;;7.90;;
52674;SDS011;38569;52.722;6.440;2024-01-10T12:24:10;13.18;;;7.45;;
52674;SDS011;38569;52.722;6.440;2024-01-10T12:26:36;12.70;;;6.45;;
52674;SDS011;38569;52.722;6.440;2024-01-10T12:29:11;12.05;;;8.30;;
52674;SDS011;38569;52.722;6.440;2024-01-10T12:31:37;11.38;;;6.70;;
52674;SDS011;38569;52.722;6.440;2024-01-10T12:34:06;11.60;;;5.10;;
52674;SDS011;38569;52.722;6.440;2024-01-10T12:36:33;12.18;;;8.30;;
52674;SDS011;38569;52.722;6.440;2024-01-10T12:38:59;13.10;;;8.23;;
52674;SDS011;38569;52.722;6.440;2024-01-10T12:41:25;14.45;;;6.35;;
52674;SDS011;38569;52.722;6.440;2024-01-10T12:43:55;10.25;;;6.90;;
52674;SDS011;38569;52.722;6.440;2024-01-10T12:46:21;13.95;;;7.47;;
52674;SDS011;38569;52.722;6.440;2024-01-10T12:49:00;9.95;;;7.00;;
52674;SDS011;38569;52.722;6.440;2024-01-10T12:51:31;11.45;;;7.57;;
52674;SDS011;38569;52.722;6.440;2024-01-10T12:53:58;11.93;;;7.18;;
52674;SDS011;38569;52.722;6.440;2024-01-10T12:56:25;11.70;;;7.82;;
52674;SDS011;38569;52.722;6.440;2024-01-10T12:58:52;11.35;;;6.70;;
52674;SDS011;38569;52.722;6.440;2024-01-10T13:01:18;12.13;;;7.82;;
52674;SDS011;38569;52.722;6.440;2024-01-10T13:03:43;16.63;;;8.23;;
52674;SDS011;38569;52.722;6.440;2024-01-10T13:06:09;11.63;;;8.23;;
52674;SDS011;38569;52.722;6.440;2024-01-10T13:08:36;16.85;;;8.32;;
52674;SDS011;38569;52.722;6.440;2024-01-10T13:11:02;15.57;;;8.85;;
52674;SDS011;38569;52.722;6.440;2024-01-10T13:13:36;15.43;;;7.88;;
52674;SDS011;38569;52.722;6.440;2024-01-10T13:16:02;13.45;;;7.15;;
52674;SDS011;38569;52.722;6.440;2024-01-10T13:18:28;13.82;;;8.40;;
52674;SDS011;38569;52.722;6.440;2024-01-10T13:20:54;12.23;;;7.55;;
52674;SDS011;38569;52.722;6.440;2024-01-10T13:23:20;11.60;;;5.97;;
52674;SDS011;38569;52.722;6.440;2024-01-10T13:25:49;10.57;;;6.80;;
52674;SDS011;38569;52.722;6.440;2024-01-10T13:28:16;13.85;;;7.60;;
52674;SDS011;38569;52.722;6.440;2024-01-10T13:30:43;5.38;;;3.22;;
52674;SDS011;38569;52.722;6.440;2024-01-10T13:33:09;13.48;;;7.80;;
52674;SDS011;38569;52.722;6.440;2024-01-10T13:35:35;14.25;;;8.77;;
52674;SDS011;38569;52.722;6.440;2024-01-10T13:38:02;14.35;;;6.97;;
52674;SDS011;38569;52.722;6.440;2024-01-10T13:40:28;11.73;;;7.20;;
52674;SDS011;38569;52.722;6.440;2024-01-10T13:42:53;11.60;;;6.28;;
52674;SDS011;38569;52.722;6.440;2024-01-10T13:45:19;12.07;;;7.30;;
52674;SDS011;38569;52.722;6.440;2024-01-10T13:47:45;12.38;;;7.55;;
52674;SDS011;38569;52.722;6.440;2024-01-10T13:50:12;12.60;;;7.22;;
52674;SDS011;38569;52.722;6.440;2024-01-10T13:52:38;9.65;;;6.10;;
52674;SDS011;38569;52.722;6.440;2024-01-10T13:55:03;12.13;;;6.68;;
52674;SDS011;38569;52.722;6.440;2024-01-10T13:57:30;11.15;;;6.38;;
52674;SDS011;38569;52.722;6.440;2024-01-10T13:59:57;10.20;;;5.30;;
52674;SDS011;38569;52.722;6.440;2024-01-10T14:02:24;12.55;;;6.95;;
52674;SDS011;38569;52.722;6.440;2024-01-10T14:04:50;10.27;;;7.25;;
52674;SDS011;38569;52.722;6.440;2024-01-10T14:07:17;12.73;;;6.95;;
52674;SDS011;38569;52.722;6.440;2024-01-10T14:09:43;13.88;;;7.05;;
52674;SDS011;38569;52.722;6.440;2024-01-10T14:12:10;13.32;;;7.95;;
52674;SDS011;38569;52.722;6.440;2024-01-10T14:14:37;9.60;;;5.30;;
52674;SDS011;38569;52.722;6.440;2024-01-10T14:17:02;12.55;;;8.07;;
52674;SDS011;38569;52.722;6.440;2024-01-10T14:19:29;14.40;;;7.03;;
52674;SDS011;38569;52.722;6.440;2024-01-10T14:21:55;12.25;;;6.88;;
52674;SDS011;38569;52.722;6.440;2024-01-10T14:24:21;11.65;;;6.47;;
52674;SDS011;38569;52.722;6.440;2024-01-10T14:26:46;11.40;;;6.85;;
52674;SDS011;38569;52.722;6.440;2024-01-10T14:29:12;13.05;;;6.00;;
52674;SDS011;38569;52.722;6.440;2024-01-10T14:31:38;15.35;;;9.32;;
52674;SDS011;38569;52.722;6.440;2024-01-10T14:34:05;12.40;;;8.25;;
52674;SDS011;38569;52.722;6.440;2024-01-10T14:36:31;11.35;;;7.07;;
52674;SDS011;38569;52.722;6.440;2024-01-10T14:38:57;8.98;;;6.45;;
52674;SDS011;38569;52.722;6.440;2024-01-10T14:41:22;17.02;;;10.05;;